Time;durP1;ratioP1;P1;durP2;ratioP2;P2;SDS_P1;SDS_P2;PMS_P1;PMS_P2;Temp;Humidity;BMP_temperature;BMP_pressure;BME280_temperature;BME280_humidity;BME280_pressure;Samples;Min_cycle;Max_cycle;Signal;HPM_P1;HPM_P2
2023/07/22 00:01:27;;;;;;;4.70;3.92;;;;;;;12.56;100.00;98288.28;4174757;28;20044;-71
2023/07/22 00:03:27;;;;;;;6.85;4.10;;;;;;;12.51;100.00;98291.47;4174603;28;20121;-71
2023/07/22 00:05:28;;;;;;;7.97;4.82;;;;;;;12.47;100.00;98293.44;4175420;28;20396;-71
2023/07/22 00:07:28;;;;;;;8.45;3.78;;;;;;;12.43;100.00;98282.34;4174605;28;20037;-71
2023/07/22 00:09:28;;;;;;;4.93;3.80;;;;;;;12.46;100.00;98283.53;4174981;28;20469;-71
2023/07/22 00:11:28;;;;;;;4.20;3.80;;;;;;;12.48;100.00;98297.78;4174820;28;20114;-71
2023/07/22 00:13:29;;;;;;;5.38;3.40;;;;;;;12.46;100.00;98300.16;4174214;28;20049;-71
2023/07/22 00:15:29;;;;;;;7.30;3.78;;;;;;;12.41;100.00;98292.22;4174745;28;20466;-71
2023/07/22 00:17:30;;;;;;;4.55;3.58;;;;;;;12.37;100.00;98300.56;4174866;28;20513;-71
2023/07/22 00:19:30;;;;;;;5.85;3.80;;;;;;;12.28;100.00;98295.41;4174761;28;20048;-71
2023/07/22 00:21:30;;;;;;;6.82;4.20;;;;;;;12.17;100.00;98294.59;4173857;28;20049;-71
2023/07/22 00:23:31;;;;;;;5.47;4.47;;;;;;;12.11;100.00;98306.47;4173866;28;20096;-71
2023/07/22 00:25:31;;;;;;;5.63;4.47;;;;;;;12.03;100.00;98295.34;4175156;28;20149;-71
2023/07/22 00:27:31;;;;;;;6.53;3.58;;;;;;;12.02;100.00;98304.84;4174168;28;20127;-71
2023/07/22 00:29:32;;;;;;;7.30;3.92;;;;;;;12.05;100.00;98306.03;4174434;28;20091;-71
2023/07/22 00:31:32;;;;;;;4.20;3.70;;;;;;;12.04;100.00;98304.44;4174542;28;20435;-71
2023/07/22 00:33:32;;;;;;;3.95;3.55;;;;;;;11.97;100.00;98315.50;4173844;28;20489;-71
2023/07/22 00:35:33;;;;;;;4.60;4.10;;;;;;;11.98;100.00;98306.81;4174515;28;20056;-71
2023/07/22 00:37:33;;;;;;;5.97;4.22;;;;;;;11.98;100.00;98308.78;4173157;28;20048;-71
2023/07/22 00:39:33;;;;;;;6.20;4.38;;;;;;;11.91;100.00;98305.97;4173910;28;20048;-71
2023/07/22 00:41:34;;;;;;;4.78;4.28;;;;;;;11.84;100.00;98301.22;4174533;28;20044;-71
2023/07/22 00:43:34;;;;;;;7.40;4.50;;;;;;;11.79;100.00;98312.66;4173362;28;20469;-71
2023/07/22 00:45:34;;;;;;;7.07;4.70;;;;;;;11.73;100.00;98309.44;4175229;28;20052;-71
2023/07/22 00:47:36;;;;;;;5.80;4.28;;;;;;;11.73;100.00;98309.44;4174252;28;20477;-71
2023/07/22 00:49:37;;;;;;;6.72;4.80;;;;;;;11.75;100.00;98306.28;4172962;28;20136;-71
2023/07/22 00:51:38;;;;;;;6.88;4.63;;;;;;;11.76;100.00;98302.34;4172553;28;20473;-71
2023/07/22 00:53:38;;;;;;;5.03;4.53;;;;;;;11.75;100.00;98309.06;4173020;28;20105;-71
2023/07/22 00:55:42;;;;;;;5.53;4.40;;;;;;;11.70;100.00;98301.13;4173584;28;20036;-71
2023/07/22 00:57:43;;;;;;;6.55;4.50;;;;;;;11.71;100.00;98309.06;4174178;28;20040;-71
2023/07/22 00:59:44;;;;;;;5.72;4.35;;;;;;;11.71;100.00;98317.38;4174498;28;20209;-71
2023/07/22 01:01:44;;;;;;;8.33;4.77;;;;;;;11.68;100.00;98312.63;4174219;28;20397;-71
2023/07/22 01:03:46;;;;;;;5.90;4.10;;;;;;;11.69;100.00;98311.44;4173346;28;20037;-71
2023/07/22 01:05:48;;;;;;;5.20;4.30;;;;;;;11.68;100.00;98309.84;4173958;28;20040;-71
2023/07/22 01:07:49;;;;;;;5.35;4.35;;;;;;;11.69;100.00;98314.19;4174406;28;20061;-71
2023/07/22 01:09:56;;;;;;;5.05;4.32;;;;;;;11.67;100.00;98310.25;4173527;28;20467;-71
2023/07/22 01:11:57;;;;;;;7.00;4.93;;;;;;;11.72;100.00;98313.41;4173758;28;20045;-71
2023/07/22 01:13:59;;;;;;;5.82;4.72;;;;;;;11.73;100.00;98309.44;4173537;28;20048;-71
2023/07/22 01:15:59;;;;;;;7.32;5.15;;;;;;;11.82;100.00;98311.88;4173863;28;20484;-71
2023/07/22 01:18:02;;;;;;;6.13;5.10;;;;;;;11.88;100.00;98312.31;4173442;28;20041;-71
2023/07/22 01:20:03;;;;;;;6.10;4.95;;;;;;;11.90;100.00;98307.97;4172605;28;20083;-71
2023/07/22 01:22:07;;;;;;;7.35;5.03;;;;;;;11.92;100.00;98315.91;4173644;28;20112;-71
2023/07/22 01:24:08;;;;;;;6.25;5.35;;;;;;;11.97;100.00;98313.53;4172038;28;20056;-71
2023/07/22 01:26:08;;;;;;;7.07;5.53;;;;;;;11.94;100.00;98314.31;4173472;28;20036;-71
2023/07/22 01:28:10;;;;;;;5.63;5.13;;;;;;;11.97;100.00;98327.41;4173134;28;20017;-71
2023/07/22 01:30:11;;;;;;;8.18;5.18;;;;;;;11.94;100.00;98321.84;4171983;28;20033;-71
2023/07/22 01:32:11;;;;;;;6.32;5.63;;;;;;;11.92;100.00;98321.47;4173452;28;20043;-71
2023/07/22 01:34:12;;;;;;;5.88;5.15;;;;;;;11.91;100.00;98323.41;4172681;28;20421;-71
2023/07/22 01:36:12;;;;;;;6.40;5.07;;;;;;;11.94;100.00;98335.72;4173578;28;20033;-71
2023/07/22 01:38:13;;;;;;;7.03;5.47;;;;;;;11.89;100.00;98317.47;4173333;28;20020;-71
2023/07/22 01:40:13;;;;;;;7.50;5.22;;;;;;;11.91;100.00;98323.41;4173403;28;20051;-71
2023/07/22 01:42:13;;;;;;;6.38;5.57;;;;;;;11.96;100.00;98331.34;4173161;28;20531;-71
2023/07/22 01:44:15;;;;;;;7.25;5.97;;;;;;;11.94;100.00;98314.31;4172450;28;20064;-71
2023/07/22 01:46:16;;;;;;;6.28;5.68;;;;;;;11.97;100.00;98321.84;4172600;28;20484;-71
2023/07/22 01:48:16;;;;;;;9.13;5.38;;;;;;;11.97;100.00;98329.38;4172149;28;20832;-71
2023/07/22 01:50:18;;;;;;;7.32;5.72;;;;;;;11.93;100.00;98326.59;4172214;28;20090;-71
2023/07/22 01:52:18;;;;;;;5.75;5.13;;;;;;;11.90;100.00;98326.56;4171873;28;20441;-71
2023/07/22 01:54:19;;;;;;;7.10;5.30;;;;;;;11.90;100.00;98330.13;4172361;28;20025;-71
2023/07/22 01:56:22;;;;;;;6.60;5.47;;;;;;;11.87;100.00;98325.38;4173145;28;20021;-71
2023/07/22 01:58:22;;;;;;;6.55;5.63;;;;;;;11.83;100.00;98332.88;4172048;28;20500;-71
2023/07/22 02:00:22;;;;;;;7.40;6.38;;;;;;;11.90;100.00;98334.91;4172952;28;20037;-71
2023/07/22 02:02:23;;;;;;;6.13;5.53;;;;;;;11.89;100.00;98338.84;4172926;28;20051;-71
2023/07/22 02:04:23;;;;;;;6.45;5.40;;;;;;;11.86;100.00;98334.91;4172920;28;20083;-71
2023/07/22 02:06:23;;;;;;;8.02;5.32;;;;;;;11.86;100.00;98340.44;4172453;28;20049;-71
2023/07/22 02:08:24;;;;;;;6.30;5.35;;;;;;;11.81;100.00;98335.25;4173633;28;20045;-71
2023/07/22 02:10:24;;;;;;;6.45;4.30;;;;;;;11.77;100.00;98342.75;4172922;28;20048;-71
2023/07/22 02:12:24;;;;;;;5.25;4.75;;;;;;;11.72;100.00;98338.34;4172652;28;20099;-71
2023/07/22 02:14:25;;;;;;;5.75;4.82;;;;;;;11.74;100.00;98332.41;4171752;28;20548;-71
2023/07/22 02:16:25;;;;;;;7.32;4.70;;;;;;;11.68;100.00;98332.03;4172351;28;20102;-71
2023/07/22 02:18:26;;;;;;;5.90;4.93;;;;;;;11.59;100.00;98342.66;4173218;28;20136;-71
2023/07/22 02:20:28;;;;;;;5.43;4.72;;;;;;;11.55;100.00;98336.28;4172952;28;20118;-71
2023/07/22 02:22:29;;;;;;;9.57;6.00;;;;;;;11.50;100.00;98333.88;4172550;28;20994;-71
2023/07/22 02:24:29;;;;;;;5.28;4.60;;;;;;;11.47;100.00;98343.78;4173061;28;20229;-71
2023/07/22 02:26:29;;;;;;;6.32;5.47;;;;;;;11.44;100.00;98346.53;4172885;28;20528;-71
2023/07/22 02:28:29;;;;;;;5.88;5.28;;;;;;;11.39;100.00;98342.13;4173434;28;20336;-71
2023/07/22 02:30:30;;;;;;;6.32;5.22;;;;;;;11.33;100.00;98349.22;4172284;28;20065;-71
2023/07/22 02:32:30;;;;;;;7.10;4.88;;;;;;;11.24;100.00;98344.00;4171764;28;20465;-71
2023/07/22 02:34:31;;;;;;;6.90;5.03;;;;;;;11.21;100.00;98349.53;4173301;28;20061;-71
2023/07/22 02:36:31;;;;;;;8.73;4.95;;;;;;;11.14;100.00;98346.72;4172007;28;20112;-71
2023/07/22 02:38:31;;;;;;;7.07;4.97;;;;;;;11.05;100.00;98337.97;4172860;28;20041;-71
2023/07/22 02:40:34;;;;;;;6.78;5.20;;;;;;;11.04;100.00;98339.94;4172028;28;20045;-71
2023/07/22 02:42:35;;;;;;;6.15;5.13;;;;;;;11.02;100.00;98338.75;4172567;28;20187;-71
2023/07/22 02:44:35;;;;;;;7.28;5.07;;;;;;;10.98;100.00;98338.69;4172782;28;20091;-71
2023/07/22 02:46:35;;;;;;;7.13;4.78;;;;;;;10.90;100.00;98339.81;4173204;28;20037;-71
2023/07/22 02:48:36;;;;;;;6.72;4.47;;;;;;;10.89;100.00;98346.53;4172089;28;20057;-71
2023/07/22 02:50:37;;;;;;;8.93;5.80;;;;;;;10.80;100.00;98351.59;4172260;28;20072;-71
2023/07/22 02:52:37;;;;;;;8.68;5.68;;;;;;;10.76;100.00;98357.13;4172284;28;20433;-71
2023/07/22 02:54:41;;;;;;;7.15;6.43;;;;;;;10.64;100.00;98363.72;4172588;28;20048;-71
2023/07/22 02:56:41;;;;;;;7.78;5.18;;;;;;;10.53;100.00;98360.06;4173181;28;20049;-71
2023/07/22 02:58:41;;;;;;;6.63;5.38;;;;;;;10.51;100.00;98364.38;4172545;28;20045;-71
2023/07/22 03:00:43;;;;;;;7.03;5.20;;;;;;;10.43;100.00;98368.25;4172288;28;20128;-71
2023/07/22 03:02:43;;;;;;;7.60;5.47;;;;;;;10.44;100.00;98370.66;4172069;28;20079;-71
2023/07/22 03:04:44;;;;;;;10.90;6.93;;;;;;;10.38;100.00;98369.38;4173153;28;20559;-71
2023/07/22 03:06:44;;;;;;;8.18;4.75;;;;;;;10.33;100.00;98364.97;4172638;28;20048;-71
2023/07/22 03:08:45;;;;;;;8.77;5.53;;;;;;;10.31;100.00;98361.81;4172506;28;20474;-71
2023/07/22 03:10:48;;;;;;;12.40;5.72;;;;;;;10.27;100.00;98369.28;4173111;28;20079;-71
2023/07/22 03:12:48;;;;;;;11.68;5.70;;;;;;;10.27;100.00;98369.28;4172034;28;20048;-71
2023/07/22 03:14:49;;;;;;;9.85;6.25;;;;;;;10.26;100.00;98373.22;4172299;28;20505;-71
2023/07/22 03:16:49;;;;;;;11.77;5.88;;;;;;;10.18;100.00;98360.47;4172365;28;20040;-71
2023/07/22 03:18:49;;;;;;;6.60;5.60;;;;;;;10.10;100.00;98356.81;4173626;28;20098;-71
2023/07/22 03:20:51;;;;;;;7.07;5.47;;;;;;;10.07;100.00;98371.38;4175182;28;20134;-71
2023/07/22 03:22:52;;;;;;;7.13;5.25;;;;;;;10.00;100.00;98367.72;4174902;28;20095;-71
2023/07/22 03:24:52;;;;;;;6.63;5.53;;;;;;;9.94;100.00;98372.03;4175860;28;20044;-71
2023/07/22 03:26:52;;;;;;;6.90;5.40;;;;;;;9.92;100.00;98371.59;4174747;28;20052;-71
2023/07/22 03:28:53;;;;;;;7.35;5.78;;;;;;;9.89;100.00;98373.13;4175754;28;20320;-71
2023/07/22 03:30:53;;;;;;;7.32;6.43;;;;;;;9.82;100.00;98375.81;4174497;28;20393;-71
2023/07/22 03:32:54;;;;;;;7.32;5.68;;;;;;;9.78;100.00;98375.78;4175398;28;20354;-71
2023/07/22 03:34:54;;;;;;;8.82;6.32;;;;;;;9.75;100.00;98379.28;4175473;28;20052;-71
2023/07/22 03:36:55;;;;;;;8.20;6.07;;;;;;;9.74;100.00;98377.69;4175131;28;20079;-71
2023/07/22 03:38:55;;;;;;;8.02;5.55;;;;;;;9.69;100.00;98382.75;4175804;28;20041;-71
2023/07/22 03:40:55;;;;;;;5.90;5.28;;;;;;;9.62;100.00;98375.16;4174576;28;20068;-71
2023/07/22 03:42:57;;;;;;;8.93;5.93;;;;;;;9.62;100.00;98385.41;4174757;28;20065;-71
2023/07/22 03:44:57;;;;;;;11.13;6.10;;;;;;;9.59;100.00;98392.47;4176235;28;20076;-71
2023/07/22 03:46:59;;;;;;;8.20;5.97;;;;;;;9.55;100.00;98388.88;4175303;28;20083;-71
2023/07/22 03:49:00;;;;;;;6.80;5.68;;;;;;;9.53;100.00;98397.53;4174194;28;20060;-71
2023/07/22 03:51:00;;;;;;;10.80;6.30;;;;;;;9.53;100.00;98391.22;4174563;28;20044;-71
2023/07/22 03:53:01;;;;;;;5.95;5.30;;;;;;;9.53;100.00;98399.50;4175009;28;20560;-71
2023/07/22 03:55:01;;;;;;;8.23;6.30;;;;;;;9.52;100.00;98404.22;4175310;28;20116;-71
2023/07/22 03:57:02;;;;;;;6.32;5.45;;;;;;;9.46;100.00;98400.19;4174869;28;20037;-71
2023/07/22 03:59:02;;;;;;;6.80;5.47;;;;;;;9.49;100.00;98401.41;4174711;28;20053;-71
2023/07/22 04:01:02;;;;;;;7.25;5.78;;;;;;;9.53;100.00;98402.28;4174940;28;20040;-71
2023/07/22 04:03:03;;;;;;;9.80;6.40;;;;;;;9.58;100.00;98405.47;4174458;28;20091;-71
2023/07/22 04:05:04;;;;;;;8.52;6.57;;;;;;;9.61;100.00;98403.16;4175446;28;20308;-71
2023/07/22 04:07:07;;;;;;;8.57;6.38;;;;;;;9.62;100.00;98400.03;4174899;28;20122;-71
2023/07/22 04:09:08;;;;;;;11.43;6.85;;;;;;;9.63;100.00;98401.63;4174739;28;20563;-71
2023/07/22 04:11:08;;;;;;;11.48;6.75;;;;;;;9.65;100.00;98399.28;4174688;28;20053;-71
2023/07/22 04:13:09;;;;;;;9.98;7.45;;;;;;;9.66;100.00;98391.78;4174045;28;20459;-71
2023/07/22 04:15:09;;;;;;;8.35;6.70;;;;;;;9.72;100.00;98393.06;4175188;28;20115;-71
2023/07/22 04:17:10;;;;;;;13.63;7.55;;;;;;;9.79;100.00;98390.38;4174813;28;20075;-71
2023/07/22 04:19:10;;;;;;;9.30;7.88;;;;;;;9.82;100.00;98386.88;4175141;28;20449;-71
2023/07/22 04:21:10;;;;;;;10.18;8.13;;;;;;;9.92;100.00;98391.72;4174901;28;20056;-71
2023/07/22 04:23:11;;;;;;;11.15;7.90;;;;;;;9.96;100.00;98391.78;4174075;28;20477;-71
2023/07/22 04:25:12;;;;;;;14.57;8.60;;;;;;;10.04;100.00;98399.00;4174977;28;20151;-71
2023/07/22 04:27:13;;;;;;;12.30;8.30;;;;;;;10.17;100.00;98391.22;4174444;28;20594;-71
2023/07/22 04:29:13;;;;;;;13.80;8.77;;;;;;;10.21;100.00;98389.31;4174582;28;20029;-71
2023/07/22 04:31:13;;;;;;;14.15;8.70;;;;;;;10.26;100.00;98395.34;4173242;28;20096;-71
2023/07/22 04:33:14;;;;;;;15.70;9.38;;;;;;;10.31;100.00;98392.22;4173931;28;20481;-71
2023/07/22 04:35:14;;;;;;;14.35;9.40;;;;;;;10.39;100.00;98393.91;4174623;28;20069;-71
2023/07/22 04:37:16;;;;;;;14.10;9.65;;;;;;;10.47;100.00;98389.22;4173858;28;20148;-71
2023/07/22 04:39:17;;;;;;;15.25;10.10;;;;;;;10.54;100.00;98394.84;4173930;28;20051;-71
2023/07/22 04:41:17;;;;;;;12.77;9.82;;;;;;;10.62;100.00;98398.47;4174655;28;20378;-71
2023/07/22 04:43:18;;;;;;;13.65;10.02;;;;;;;10.70;100.00;98397.38;4173094;28;20045;-71
2023/07/22 04:45:18;;;;;;;17.10;9.82;;;;;;;10.83;100.00;98395.09;4174432;28;20052;-71
2023/07/22 04:47:18;;;;;;;14.05;10.52;;;;;;;10.93;100.00;98402.72;4174432;28;20092;-71
2023/07/22 04:49:19;;;;;;;12.93;10.45;;;;;;;11.03;100.00;98409.53;4174210;28;20045;-71
2023/07/22 04:51:19;;;;;;;17.63;11.25;;;;;;;11.11;100.00;98400.13;4154021;27;20448;-71
2023/07/22 04:53:21;;;;;;;15.10;9.95;;;;;;;11.22;100.00;98398.22;4165713;28;20385;-71
2023/07/22 04:55:22;;;;;;;13.53;10.63;;;;;;;11.33;100.00;98406.59;4173827;28;20037;-71
2023/07/22 04:57:22;;;;;;;15.10;10.27;;;;;;;11.41;100.00;98409.03;4173873;28;20275;-71
2023/07/22 04:59:23;;;;;;;17.80;10.13;;;;;;;11.46;100.00;98403.13;4174295;28;20065;-71
2023/07/22 05:01:23;;;;;;;16.88;10.43;;;;;;;11.60;100.00;98399.66;4174728;28;20321;-71
2023/07/22 05:03:26;;;;;;;17.15;9.60;;;;;;;11.72;100.00;98413.19;4172893;28;20041;-71
2023/07/22 05:05:26;;;;;;;16.92;10.15;;;;;;;11.86;100.00;98415.28;4173525;28;20067;-71
2023/07/22 05:07:26;;;;;;;14.30;9.23;;;;;;;11.94;100.00;98407.81;4173994;28;20124;-71
2023/07/22 05:09:27;;;;;;;15.70;10.13;;;;;;;12.04;100.00;98407.84;4174317;28;20036;-71
2023/07/22 05:11:27;;;;;;;18.05;10.82;;;;;;;12.14;100.00;98409.06;4173553;28;20041;-71
2023/07/22 05:13:27;;;;;;;13.63;9.95;;;;;;;12.20;100.00;98413.06;4172794;28;20138;-71
2023/07/22 05:15:28;;;;;;;14.10;10.70;;;;;;;12.33;100.00;98413.50;4173619;28;20092;-71
2023/07/22 05:17:29;;;;;;;17.58;11.00;;;;;;;12.40;100.00;98407.19;4173955;28;20148;-71
2023/07/22 05:19:29;;;;;;;13.70;10.10;;;;;;;12.51;100.00;98417.13;4173901;28;20559;-71
2023/07/22 05:21:30;;;;;;;14.32;9.35;;;;;;;12.68;100.00;98412.81;4173871;28;20041;-71
2023/07/22 05:23:30;;;;;;;16.05;9.57;;;;;;;12.77;100.00;98417.97;4172904;28;20044;-71
2023/07/22 05:25:30;;;;;;;13.45;9.85;;;;;;;12.79;100.00;98419.16;4172515;28;20053;-71
2023/07/22 05:27:31;;;;;;;13.68;9.85;;;;;;;12.91;100.00;98418.81;4173680;28;20082;-71
2023/07/22 05:29:31;;;;;;;13.18;9.90;;;;;;;12.94;100.00;98420.78;4172953;28;20526;-71
2023/07/22 05:31:31;;;;;;;14.50;9.30;;;;;;;13.08;100.00;98422.00;4172428;28;20139;-71
2023/07/22 05:33:31;;;;;;;13.27;9.75;;;;;;;13.14;100.00;98431.50;4172475;28;20136;-71
2023/07/22 05:35:32;;;;;;;13.63;9.52;;;;;;;13.21;100.00;98432.31;4173109;28;20044;-71
2023/07/22 05:37:32;;;;;;;13.85;9.45;;;;;;;13.26;100.00;98427.56;4173161;28;20045;-71
2023/07/22 05:39:32;;;;;;;10.48;8.55;;;;;;;13.29;100.00;98424.00;4173340;28;20040;-70
2023/07/22 05:41:33;;;;;;;12.13;9.15;;;;;;;13.33;100.00;98422.03;4173013;28;20072;-71
2023/07/22 05:43:34;;;;;;;12.90;9.45;;;;;;;13.42;100.00;98420.44;4172502;28;20108;-71
2023/07/22 05:45:34;;;;;;;14.98;8.70;;;;;;;13.49;100.00;98423.19;4173484;28;20076;-71
2023/07/22 05:47:34;;;;;;;10.20;8.32;;;;;;;13.56;100.00;98422.38;4172566;28;20075;-71
2023/07/22 05:49:35;;;;;;;12.18;8.68;;;;;;;13.60;100.00;98422.38;4173299;28;20140;-71
2023/07/22 05:51:35;;;;;;;12.27;8.45;;;;;;;13.60;100.00;98420.41;4172285;28;20580;-71
2023/07/22 05:53:36;;;;;;;11.73;9.13;;;;;;;13.67;100.00;98419.59;4170475;28;20131;-71
2023/07/22 05:55:36;;;;;;;14.13;8.85;;;;;;;13.71;100.00;98426.72;4172347;28;20053;-70
2023/07/22 05:57:36;;;;;;;16.35;8.75;;;;;;;13.72;100.00;98422.75;4173116;28;20049;-71
2023/07/22 05:59:37;;;;;;;11.13;8.52;;;;;;;13.82;100.00;98423.13;4173471;28;20068;-71
2023/07/22 06:01:38;;;;;;;11.55;7.68;;;;;;;13.91;100.00;98424.31;4173355;28;20122;-71
2023/07/22 06:03:38;;;;;;;12.18;8.88;;;;;;;13.96;100.00;98423.88;4171955;28;20473;-71
2023/07/22 06:05:38;;;;;;;22.83;8.23;;;;;;;14.02;100.00;98415.94;4173028;28;20091;-71
2023/07/22 06:07:39;;;;;;;12.05;8.40;;;;;;;14.10;100.00;98417.50;4173127;28;20427;-71
2023/07/22 06:09:39;;;;;;;14.30;7.78;;;;;;;14.19;100.00;98417.84;4172847;28;20114;-71
2023/07/22 06:11:39;;;;;;;11.45;9.07;;;;;;;14.22;100.00;98424.59;4172774;28;20079;-71
2023/07/22 06:13:40;;;;;;;11.32;8.63;;;;;;;14.22;100.00;98427.38;4170552;28;20082;-71
2023/07/22 06:15:40;;;;;;;11.63;8.07;;;;;;;14.23;100.00;98415.88;4173030;28;20049;-71
2023/07/22 06:17:40;;;;;;;10.73;7.60;;;;;;;14.26;100.00;98411.47;4172685;28;20052;-70
2023/07/22 06:19:41;;;;;;;13.52;8.20;;;;;;;14.28;100.00;98428.56;4172832;28;20218;-71
2023/07/22 06:21:41;;;;;;;12.07;8.07;;;;;;;14.32;100.00;98421.00;4172682;28;20057;-71
2023/07/22 06:23:41;;;;;;;13.25;8.30;;;;;;;14.43;100.00;98416.16;4170320;28;20488;-71
2023/07/22 06:25:42;;;;;;;11.25;8.20;;;;;;;14.44;100.00;98417.75;4172200;28;20041;-71
2023/07/22 06:27:43;;;;;;;12.85;8.13;;;;;;;14.50;100.00;98415.38;4173196;28;20041;-71
2023/07/22 06:29:43;;;;;;;11.13;8.02;;;;;;;14.54;100.00;98428.06;4171010;28;20080;-71
2023/07/22 06:31:44;;;;;;;12.07;8.52;;;;;;;14.56;100.00;98422.91;4168352;28;20087;-71
2023/07/22 06:33:44;;;;;;;11.57;7.60;;;;;;;14.61;100.00;98425.22;4172006;28;20503;-71
2023/07/22 06:35:44;;;;;;;12.80;8.25;;;;;;;14.66;100.00;98415.69;4168482;28;20048;-71
2023/07/22 06:37:45;;;;;;;14.15;8.18;;;;;;;14.73;100.00;98425.94;4171831;28;20502;-71
2023/07/22 06:39:45;;;;;;;11.90;7.85;;;;;;;14.76;100.00;98420.38;4168918;28;20509;-71
2023/07/22 06:41:45;;;;;;;11.25;8.23;;;;;;;14.87;100.00;98423.88;4166194;28;20440;-71
2023/07/22 06:43:46;;;;;;;11.90;7.55;;;;;;;14.89;100.00;98424.28;4164149;28;20060;-71
2023/07/22 06:45:46;;;;;;;10.30;7.18;;;;;;;14.97;100.00;98430.56;4112400;28;20051;-71
2023/07/22 06:47:47;;;;;;;11.23;7.60;;;;;;;15.00;100.00;98428.97;4175494;28;20044;-71
2023/07/22 06:49:47;;;;;;;9.38;6.97;;;;;;;15.06;100.00;98430.13;4164077;28;20037;-71
2023/07/22 06:51:47;;;;;;;9.95;7.25;;;;;;;15.09;100.00;98435.69;4165762;28;20053;-71
2023/07/22 06:53:48;;;;;;;11.85;8.10;;;;;;;15.14;100.00;98432.47;4165272;28;20397;-71
2023/07/22 06:55:50;;;;;;;14.15;7.93;;;;;;;15.15;100.00;98431.25;4168073;28;20088;-71
2023/07/22 06:57:50;;;;;;;12.32;7.43;;;;;;;15.16;100.00;98430.06;4174764;28;20132;-71
2023/07/22 06:59:50;;;;;;;12.50;7.85;;;;;;;15.21;100.00;98441.97;4175582;28;20068;-71
2023/07/22 07:01:51;;;;;;;9.90;6.72;;;;;;;15.29;100.00;98433.13;4175230;28;20080;-71
2023/07/22 07:03:51;;;;;;;9.23;5.93;;;;;;;15.39;100.00;98442.59;4175203;28;20439;-71
2023/07/22 07:05:53;;;;;;;9.23;6.40;;;;;;;15.51;100.00;98435.75;4175686;28;20473;-71
2023/07/22 07:07:54;;;;;;;9.32;6.53;;;;;;;15.53;97.00;98441.69;4175915;28;20044;-71
2023/07/22 07:09:54;;;;;;;10.52;5.57;;;;;;;15.59;94.70;98437.25;4175774;28;20029;-71
2023/07/22 07:11:57;;;;;;;7.80;5.60;;;;;;;15.69;93.47;98441.97;4174805;28;20044;-71
2023/07/22 07:13:58;;;;;;;9.20;6.10;;;;;;;15.72;93.44;98443.94;4175211;28;20473;-71
2023/07/22 07:16:22;;;;;;;10.52;6.03;;;;;;;15.73;94.19;98434.38;4175937;28;20076;-71
2023/07/22 07:18:22;;;;;;;9.20;5.88;;;;;;;15.81;94.86;98438.69;4175869;28;20462;-71
2023/07/22 07:20:22;;;;;;;7.95;5.50;;;;;;;15.94;93.49;98447.31;4175504;28;20080;-71
2023/07/22 07:22:23;;;;;;;9.43;5.60;;;;;;;15.98;90.43;98436.91;4174772;28;20037;-71
2023/07/22 07:24:24;;;;;;;9.57;5.05;;;;;;;16.27;90.65;98452.13;4175448;28;20068;-71
2023/07/22 07:26:24;;;;;;;9.27;5.28;;;;;;;16.41;89.80;98450.38;4175349;28;20087;-71
2023/07/22 07:28:25;;;;;;;11.55;5.60;;;;;;;16.51;87.90;98449.44;4175590;28;20432;-71
2023/07/22 07:30:25;;;;;;;8.32;5.82;;;;;;;16.56;89.20;98457.38;4175624;28;20389;-71
2023/07/22 07:32:25;;;;;;;8.18;4.85;;;;;;;16.60;86.44;98458.09;4175175;28;20524;-71
2023/07/22 07:34:26;;;;;;;9.15;5.38;;;;;;;16.64;86.36;98455.28;4175269;28;20404;-71
2023/07/22 07:36:26;;;;;;;7.60;5.03;;;;;;;16.74;86.90;98455.16;4174387;28;20175;-71
2023/07/22 07:38:27;;;;;;;9.00;4.88;;;;;;;16.85;86.86;98453.00;4175527;28;20041;-71
2023/07/22 07:40:27;;;;;;;6.72;4.82;;;;;;;16.94;84.08;98458.06;4175280;28;20052;-71
2023/07/22 07:42:27;;;;;;;7.05;5.03;;;;;;;16.91;84.53;98455.31;4174818;28;20079;-71
2023/07/22 07:44:28;;;;;;;9.55;5.38;;;;;;;16.87;85.10;98457.38;4175566;28;20469;-71
2023/07/22 07:46:29;;;;;;;9.65;5.40;;;;;;;16.77;85.88;98447.91;4175794;28;20130;-71
2023/07/22 07:48:29;;;;;;;9.80;5.72;;;;;;;16.85;87.98;98455.00;4174737;28;20044;-71
2023/07/22 07:50:29;;;;;;;8.13;5.13;;;;;;;16.93;85.71;98461.28;4175680;28;20123;-71
2023/07/22 07:52:29;;;;;;;7.47;4.80;;;;;;;17.07;84.20;98461.88;4174295;28;20040;-71
2023/07/22 07:54:30;;;;;;;8.07;5.20;;;;;;;17.14;83.77;98458.19;4175128;28;20031;-71
2023/07/22 07:56:30;;;;;;;8.43;5.50;;;;;;;16.92;82.49;98462.50;4175369;28;20392;-71
2023/07/22 07:58:30;;;;;;;8.32;5.55;;;;;;;17.03;84.50;98454.72;4174204;28;20043;-71
2023/07/22 08:00:31;;;;;;;9.25;4.95;;;;;;;17.13;84.73;98462.97;4174110;28;20044;-71
2023/07/22 08:02:31;;;;;;;8.40;5.25;;;;;;;17.08;84.92;98466.25;4174252;28;20462;-71
2023/07/22 08:04:31;;;;;;;7.47;4.80;;;;;;;17.09;81.44;98459.44;4174797;28;20110;-71
2023/07/22 08:06:32;;;;;;;9.50;4.82;;;;;;;17.22;80.49;98470.84;4174808;28;20037;-71
2023/07/22 08:08:33;;;;;;;8.18;4.88;;;;;;;17.11;81.21;98470.19;4174482;28;20276;-71
2023/07/22 08:10:33;;;;;;;5.78;4.03;;;;;;;17.10;81.44;98463.81;4173167;28;20045;-71
2023/07/22 08:12:34;;;;;;;5.97;4.88;;;;;;;17.20;82.41;98459.25;4173937;28;20033;-71
2023/07/22 08:14:34;;;;;;;6.43;4.72;;;;;;;17.17;81.39;98465.72;4174737;28;20044;-71
2023/07/22 08:16:35;;;;;;;5.90;4.38;;;;;;;16.92;80.17;98460.50;4174127;28;20044;-71
2023/07/22 08:18:36;;;;;;;7.55;4.43;;;;;;;16.94;81.84;98460.06;4174486;28;20090;-71
2023/07/22 08:20:36;;;;;;;6.82;4.43;;;;;;;17.03;81.26;98460.31;4142047;28;20370;-71
2023/07/22 08:22:37;;;;;;;7.35;4.30;;;;;;;17.08;81.51;98466.25;4173842;28;20174;-71
2023/07/22 08:24:37;;;;;;;6.38;4.32;;;;;;;17.03;79.36;98458.31;4173640;28;20037;-71
2023/07/22 08:26:37;;;;;;;6.30;4.75;;;;;;;16.93;80.43;98475.25;4174095;28;20052;-71
2023/07/22 08:28:38;;;;;;;8.05;4.15;;;;;;;16.89;80.64;98474.53;4174372;28;20076;-71
2023/07/22 08:30:40;;;;;;;7.10;4.40;;;;;;;16.83;80.87;98469.38;4174394;28;20059;-71
2023/07/22 08:32:40;;;;;;;6.82;4.95;;;;;;;16.92;82.06;98470.88;4171601;28;20345;-71
2023/07/22 08:34:41;;;;;;;8.70;4.38;;;;;;;17.00;81.49;98472.34;4173490;28;20041;-71
2023/07/22 08:36:41;;;;;;;7.47;4.85;;;;;;;17.06;81.91;98471.47;4174280;28;20055;-71
2023/07/22 08:38:42;;;;;;;7.18;4.85;;;;;;;17.14;80.27;98477.75;4174849;28;20048;-71
2023/07/22 08:40:42;;;;;;;5.97;4.88;;;;;;;17.09;79.86;98465.03;4173837;28;20065;-71
2023/07/22 08:42:46;;;;;;;6.43;4.68;;;;;;;17.12;80.89;98466.97;4172616;28;20377;-71
2023/07/22 08:44:48;;;;;;;7.93;4.90;;;;;;;17.38;80.59;98462.59;4174191;28;20053;-71
2023/07/22 08:46:55;;;;;;;35.03;6.55;;;;;;;17.46;80.08;98468.03;4173795;28;20056;-71
2023/07/22 08:48:57;;;;;;;22.70;5.97;;;;;;;17.62;78.23;98459.78;4173981;28;20249;-71
2023/07/22 08:51:14;;;;;;;20.50;5.70;;;;;;;17.90;77.68;98466.94;4172814;28;20048;-71
2023/07/22 08:53:15;;;;;;;17.27;5.57;;;;;;;18.00;77.86;98467.97;4173424;28;20056;-71
2023/07/22 08:55:16;;;;;;;7.38;4.43;;;;;;;18.08;77.86;98466.59;4174317;28;20381;-71
2023/07/22 08:57:17;;;;;;;5.10;4.15;;;;;;;18.05;77.05;98461.88;4174398;28;20056;-71
2023/07/22 08:59:18;;;;;;;6.68;4.28;;;;;;;17.86;75.45;98469.00;4173370;28;20127;-70
2023/07/22 09:01:19;;;;;;;5.10;4.18;;;;;;;17.76;76.80;98467.19;4173886;28;20049;-71
2023/07/22 09:03:19;;;;;;;5.30;4.07;;;;;;;17.78;77.65;98462.72;4173410;28;20076;-70
2023/07/22 09:05:20;;;;;;;5.03;4.45;;;;;;;18.00;79.61;98467.97;4173604;28;20131;-71
2023/07/22 09:07:20;;;;;;;9.45;4.90;;;;;;;17.92;77.12;98462.47;4174120;28;20049;-70
2023/07/22 09:09:22;;;;;;;6.80;4.93;;;;;;;17.96;77.27;98462.44;4173999;28;20500;-71
2023/07/22 09:11:23;;;;;;;6.78;4.03;;;;;;;17.90;78.04;98464.94;4172318;28;20053;-71
2023/07/22 09:13:26;;;;;;;8.52;4.47;;;;;;;17.79;76.80;98461.53;4173527;28;20430;-71
2023/07/22 09:15:26;;;;;;;;;;;;;;;17.87;75.53;98454.59;4174698;28;20064;-71
2023/07/22 09:17:28;;;;;;;66.35;6.78;;;;;;;17.94;74.02;98451.66;4173347;28;19917;-70
2023/07/22 09:19:30;;;;;;;12.32;3.58;;;;;;;17.94;71.29;98454.44;4173384;28;20492;-71
2023/07/22 09:21:30;;;;;;;4.88;3.58;;;;;;;18.14;72.97;98454.47;4173270;28;20081;-71